0

www.moto.it

MX 2017. Herlings e Olsen si aggiudicano le qualifiche a Kegums

0
...

 MX 2017. Herlings e Olsen si aggiudicano le qualifiche a Kegums

Evidentemente il 3° posto di Valkenswaard ha fatto scattare la molla a Jeffrey Herlings che dopo aver patito le pene dell’inferno per i postumi della caduta di Ottobiano, e soprattutto la frustrazione nel non poter esprimersi al massimo del suo potenziale a causa della frattura alla mano, sembra aver trovato forma e competitività per lottare anche ai vertici della 450.


Lo ha sottolineato nelle qualifiche della Lettonia, dove si è assicurato la meritata affermazione dopo aver inseguito per tutta la gara Max Nagl, anche lui finalmente ritornato nelle posizioni di testa dopo un mesto inizio stagionale, che ha superato con un colpo da maestro all’ultimo giro.


Il tedesco della Husqvarna IceOne ha tagliato il traguardo alle spalle dell’ufficiale KTM, seguito dal consistente Jeremy Van Horebeek che a due tornate dalla fine ha scavalcato Tim Gajser il quale si è dovuto accontentare del 4° posto davanti al compagno di squadra Evgeny Bobryshev.

8° al primo passaggio, Tony Cairoli ha lentamente progredito di un paio di posizioni, ma poi all’ultimo passaggio è finito a terra ed ha concluso 7°.

MX2

La MX2 ha visto partire alla grande Jorge Prado, ma poi lo spagnolo ha iniziato a pasticciare ed ha gradatamente perso terreno lasciando spazio prima al sempre più competitivo danese Thomas Kjer Olsen che si è poi aggiudicato la gara, quindi a Pauls Jonass ed infine a Thomas Covington il quale ha scavalcato anche il pilota di casa terminandogli davanti in seconda posizione; solo 15° Samuele Bernardini rallentato dai problemi alla caviglia seguito da Michele Cervellin ancora non in perfetta forma dopo l’incidente alla mano.

 

Europeo 250

La prima manche dell’Europeo 250 ha registrato il posto d’onore dio Morgan Lesiardo, il 4° di Simone Furlotti ed il 6° di Alberto Forato, mentre quella 125 ha visto Gianluca Facchetti piazzarsi 3° davanti a Matteo Puccinelli.

CLASSIFICHE

MXGP - Qualifying Race - Classification

Pos Nr Rider Nat. Fed. Bike Time laps Diff. First Diff. Prev. Bestlaptime in lap Speed
1 84 Herlings, Jeffrey NED KNMV KTM 24:13.369 12 0:00.000 0:00.000 1:52.475 6 49.2
2 12 Nagl, Maximilian GER DMSB Husqvarna 24:15.888 12 0:02.519 0:02.519 1:51.934 3 49.5
3 89 Van Horebeek, Jeremy BEL FMB Yamaha 24:25.557 12 0:12.188 0:09.669 1:53.802 6 48.7
4 243 Gajser, Tim SLO AMZS Honda 24:28.180 12 0:14.811 0:02.623 1:53.554 6 48.8
5 777 Bobryshev, Evgeny RUS MFR Honda 24:32.272 12 0:18.903 0:04.092 1:53.777 3 48.7
6 27 Jasikonis, Arminas LTU LMSF Suzuki 24:36.788 12 0:23.419 0:04.516 1:53.773 4 48.7
7 222 Cairoli, Antonio ITA FMI KTM 24:37.915 12 0:24.546 0:01.127 1:53.535 3 48.8
8 25 Desalle, Clement BEL FMB Kawasaki 24:44.371 12 0:31.002 0:06.456 1:54.966 3 48.2
9 21 Paulin, Gautier FRA MCM Husqvarna 24:45.566 12 0:32.197 0:01.195 1:55.225 2 48.1
10 24 Simpson, Shaun GBR ACU Yamaha 24:46.666 12 0:33.297 0:01.100 1:55.023 3 48.1
11 99 Anstie, Max GBR ACU Husqvarna 24:48.128 12 0:34.759 0:01.462 1:54.593 2 48.3
12 259 Coldenhoff, Glenn NED KNMV KTM 24:57.892 12 0:44.523 0:09.764 1:55.604 8 47.9
13 461 Febvre, Romain FRA FFM Yamaha 25:08.683 12 0:55.314 0:10.791 1:55.144 8 48.1
14 71 Graulus, Damon BEL FMB Honda 25:09.394 12 0:56.025 0:00.711 1:56.205 3 47.7
15 911 Tixier, Jordi FRA FFM Kawasaki 25:13.132 12 0:59.763 0:03.738 1:57.076 8 47.3
16 17 Butron, Jose ESP RFME KTM 25:15.453 12 1:02.084 0:02.321 1:57.390 8 47.2
17 7 Leok, Tanel EST EMF Husqvarna 25:16.538 12 1:03.169 0:01.085 1:57.392 7 47.2
18 151 Kullas, Harri EST EMF Husqvarna 25:18.646 12 1:05.277 0:02.108 1:57.285 7 47.2
19 92 Guillod, Valentin SUI FMS Honda 25:35.655 12 1:22.286 0:17.009 1:57.685 7 47.1
20 664 Bengtsson, Filip SWE SVEMO KTM 25:41.001 12 1:27.632 0:05.346 1:58.106 4 46.9

MX2 - Qualifying Race - Classification

Pos Nr Rider Nat. Fed. Bike Time laps Diff. First Diff. Prev. Bestlaptime in lap Speed
1 19 Olsen, Thomas Kjer DEN DMU Husqvarna 24:21.659 12 0:00.000 0:00.000 1:53.088 6 49
2 64 Covington, Thomas USA MUL Husqvarna 24:25.681 12 0:04.022 0:04.022 1:52.828 3 49.1
3 41 Jonass, Pauls LAT LAMSF KTM 24:27.656 12 0:05.997 0:01.975 1:53.546 5 48.8
4 61 Prado Garcia, Jorge ESP RFME KTM 24:33.697 12 0:12.038 0:06.041 1:52.253 2 49.3
5 10 Vlaanderen, Calvin NED KNMV KTM 24:34.617 12 0:12.958 0:00.920 1:54.054 4 48.6
6 81 Hsu, Brian GER MAMS Husqvarna 24:39.518 12 0:17.859 0:04.901 1:53.684 4 48.7
7 57 Sanayei, Darian USA AMA Kawasaki 24:46.569 12 0:24.910 0:07.051 1:54.686 2 48.3
8 91 Seewer, Jeremy SUI FMS Suzuki 24:47.611 12 0:25.952 0:01.042 1:51.680 2 49.6
9 172 Van doninck, Brent BEL FMB Yamaha 24:55.756 12 0:34.097 0:08.145 1:55.487 2 48
10 29 Jacobi, Henry GER DMSB Husqvarna 24:58.466 12 0:36.807 0:02.710 1:55.362 3 48
11 98 Vaessen, Bas NED KNMV Suzuki 25:01.227 12 0:39.568 0:02.761 1:55.172 4 48.1
12 6 Paturel, Benoit FRA FFM Yamaha 25:08.333 12 0:46.674 0:07.106 1:55.748 7 47.8
13 189 Bogers, Brian NED KNMV KTM 25:08.639 12 0:46.980 0:00.306 1:55.570 3 47.9
14 426 Mewse, Conrad GBR ACU Husqvarna 25:10.564 12 0:48.905 0:01.925 1:55.506 5 47.9
15 321 Bernardini, Samuele ITA FMI TM 25:20.143 12 0:58.484 0:09.579 1:55.956 5 47.8
16 747 Cervellin, Michele ITA FMI Honda 25:27.227 12 1:05.568 0:07.084 1:57.901 5 47
17 338 Herbreteau, David FRA FFM Kawasaki 25:27.727 12 1:06.068 0:00.500 1:57.838 6 47
18 152 Petrov, Petar BUL FRM Kawasaki 25:28.939 12 1:07.280 0:01.212 1:57.794 9 47
19 161 Östlund, Alvin SWE SVEMO Yamaha 25:29.908 12 1:08.249 0:00.969 1:58.356 4 46.8
20 919 Watson, Ben GBR ACU KTM 25:31.234 12 1:09.575 0:01.326 1:56.854 8 47.4